createdAt,value
2019-06-26T00:02:24.056Z,22.60
2019-06-26T00:04:53.036Z,22.50
2019-06-26T00:07:22.222Z,22.50
2019-06-26T00:09:51.300Z,22.40
2019-06-26T00:12:20.321Z,22.40
2019-06-26T00:14:49.469Z,22.30
2019-06-26T00:17:18.698Z,22.20
2019-06-26T00:19:47.823Z,22.20
2019-06-26T00:22:16.844Z,22.10
2019-06-26T00:24:45.961Z,22.10
2019-06-26T00:27:15.003Z,22.10
2019-06-26T00:29:43.982Z,22.10
2019-06-26T00:32:12.937Z,22.10
2019-06-26T00:34:42.084Z,22.10
2019-06-26T00:37:11.086Z,22.10
2019-06-26T00:39:40.190Z,22.10
2019-06-26T00:42:09.153Z,22.20
2019-06-26T00:44:38.300Z,22.20
2019-06-26T00:47:07.322Z,22.20
2019-06-26T00:49:36.317Z,22.20
2019-06-26T00:52:05.413Z,22.20
2019-06-26T00:54:34.798Z,22.20
2019-06-26T00:57:04.017Z,22.10
2019-06-26T00:59:32.964Z,22.10
2019-06-26T01:02:02.112Z,22.10
2019-06-26T01:04:32.705Z,22.10
2019-06-26T01:07:01.961Z,22.20
2019-06-26T01:09:31.095Z,22.30
2019-06-26T01:12:00.264Z,22.50
2019-06-26T01:14:29.265Z,22.50
2019-06-26T01:16:58.308Z,22.40
2019-06-26T01:19:27.459Z,22.30
2019-06-26T01:21:56.565Z,22.20
2019-06-26T01:24:25.545Z,22.10
2019-06-26T01:26:54.830Z,22.00
2019-06-26T01:29:23.852Z,22.10
2019-06-26T01:31:53.089Z,22.00
2019-06-26T01:34:22.208Z,22.00
2019-06-26T01:36:51.206Z,22.00
2019-06-26T01:39:20.590Z,22.10
2019-06-26T01:41:49.932Z,22.10
2019-06-26T01:44:19.006Z,22.10
2019-06-26T01:46:47.979Z,22.10
2019-06-26T01:49:16.995Z,22.10
2019-06-26T01:51:46.270Z,22.00
2019-06-26T01:54:15.213Z,22.00
2019-06-26T01:56:44.201Z,22.00
2019-06-26T01:59:13.141Z,21.90
2019-06-26T02:01:42.475Z,21.90
2019-06-26T02:04:11.430Z,21.80
2019-06-26T02:06:40.480Z,21.80
2019-06-26T02:09:09.489Z,21.80
2019-06-26T02:11:38.481Z,21.70
2019-06-26T02:14:07.710Z,21.70
2019-06-26T02:16:36.969Z,21.70
2019-06-26T02:19:07.634Z,21.70
2019-06-26T02:21:36.758Z,21.70
2019-06-26T02:24:05.925Z,21.70
2019-06-26T02:26:35.205Z,21.70
2019-06-26T02:29:04.561Z,21.70
2019-06-26T02:31:33.527Z,21.70
2019-06-26T02:34:02.931Z,21.70
2019-06-26T02:36:32.130Z,21.70
2019-06-26T02:39:01.152Z,21.70
2019-06-26T02:41:30.300Z,21.70
2019-06-26T02:43:59.540Z,21.70
2019-06-26T02:46:28.494Z,21.70
2019-06-26T02:48:57.609Z,21.70
2019-06-26T02:51:26.743Z,21.70
2019-06-26T02:53:55.784Z,21.60
2019-06-26T02:56:24.747Z,21.60
2019-06-26T02:58:54.173Z,21.60
2019-06-26T03:01:23.434Z,21.60
2019-06-26T03:03:52.494Z,21.60
2019-06-26T03:06:21.553Z,21.60
2019-06-26T03:08:50.637Z,21.60
2019-06-26T03:11:20.491Z,21.60
2019-06-26T03:13:49.611Z,21.70
2019-06-26T03:16:18.894Z,21.60
2019-06-26T03:18:47.935Z,21.60
2019-06-26T03:21:17.143Z,21.60
2019-06-26T03:23:46.328Z,21.50
2019-06-26T03:26:15.334Z,21.50
2019-06-26T03:28:44.389Z,21.50
2019-06-26T03:31:13.339Z,21.50
2019-06-26T03:33:42.513Z,21.50
2019-06-26T03:36:11.548Z,21.50
2019-06-26T03:38:40.695Z,21.50
2019-06-26T03:41:09.676Z,21.40
2019-06-26T03:43:39.229Z,21.40
2019-06-26T03:46:08.738Z,21.40
2019-06-26T03:48:37.856Z,21.40
2019-06-26T03:51:07.062Z,21.40
2019-06-26T03:53:36.068Z,21.40
2019-06-26T03:56:05.341Z,21.40
2019-06-26T03:58:34.569Z,21.40
2019-06-26T04:01:03.699Z,21.40
2019-06-26T04:03:32.641Z,21.40
2019-06-26T04:06:01.824Z,21.40
2019-06-26T04:08:30.782Z,21.40
2019-06-26T04:10:59.825Z,21.50
2019-06-26T04:13:28.848Z,21.60
2019-06-26T04:15:58.052Z,21.70
2019-06-26T04:18:27.012Z,21.80
2019-06-26T04:20:56.153Z,21.90
2019-06-26T04:23:25.537Z,22.00
2019-06-26T04:25:54.653Z,22.00
2019-06-26T04:28:23.595Z,22.00
2019-06-26T04:30:52.640Z,21.90
2019-06-26T04:33:21.884Z,21.90
2019-06-26T04:35:50.907Z,21.80
2019-06-26T04:38:19.896Z,21.80
2019-06-26T04:40:48.939Z,21.80
2019-06-26T04:43:18.338Z,21.80
2019-06-26T04:45:57.704Z,21.80
2019-06-26T04:48:18.507Z,21.80
2019-06-26T04:50:47.549Z,21.80
2019-06-26T04:53:16.726Z,21.80
2019-06-26T04:55:45.876Z,21.80
2019-06-26T04:58:14.913Z,21.80
2019-06-26T05:00:44.008Z,21.90
2019-06-26T05:03:12.988Z,22.00
2019-06-26T05:05:44.421Z,22.00
2019-06-26T05:08:13.296Z,22.10
2019-06-26T05:10:42.942Z,22.10
2019-06-26T05:13:12.277Z,22.20
2019-06-26T05:15:41.443Z,22.20
2019-06-26T05:18:10.581Z,22.20
2019-06-26T05:20:39.766Z,22.20
2019-06-26T05:23:08.819Z,22.30
2019-06-26T05:25:38.079Z,22.40
2019-06-26T05:28:08.456Z,22.40
2019-06-26T05:30:37.614Z,22.40
2019-06-26T05:33:06.853Z,22.50
2019-06-26T05:35:35.857Z,22.50
2019-06-26T05:38:05.186Z,22.60
2019-06-26T05:40:34.368Z,22.70
2019-06-26T05:43:03.432Z,22.70
2019-06-26T05:45:32.711Z,23.00
2019-06-26T05:48:01.693Z,23.20
2019-06-26T05:50:30.666Z,23.40
2019-06-26T05:52:59.755Z,23.60
2019-06-26T05:55:28.866Z,23.80
2019-06-26T05:57:58.202Z,23.90
2019-06-26T06:00:27.205Z,24.00
2019-06-26T06:02:56.621Z,24.10
2019-06-26T06:05:25.948Z,24.20
2019-06-26T06:07:55.207Z,24.30
2019-06-26T06:10:24.344Z,24.30
2019-06-26T06:12:53.496Z,24.30
2019-06-26T06:15:22.614Z,24.20
2019-06-26T06:17:51.778Z,24.10
2019-06-26T06:20:35.862Z,24.10
2019-06-26T06:23:05.294Z,24.10
2019-06-26T06:25:34.774Z,24.10
2019-06-26T06:28:04.957Z,24.20
2019-06-26T06:30:34.189Z,24.20
2019-06-26T06:33:04.177Z,24.20
2019-06-26T06:35:33.721Z,24.20
2019-06-26T06:38:03.417Z,24.20
2019-06-26T06:40:32.526Z,24.20
2019-06-26T06:43:01.530Z,24.20
2019-06-26T06:45:30.948Z,24.20
2019-06-26T06:48:00.203Z,24.30
2019-06-26T06:50:29.526Z,24.40
2019-06-26T06:52:58.735Z,24.40
2019-06-26T06:55:27.897Z,24.40
2019-06-26T06:57:57.101Z,24.50
2019-06-26T07:00:26.323Z,24.50
2019-06-26T07:02:55.512Z,24.60
2019-06-26T07:05:24.524Z,24.60
2019-06-26T07:07:53.637Z,24.60
2019-06-26T07:10:22.685Z,24.70
2019-06-26T07:12:51.731Z,24.80
2019-06-26T07:15:23.049Z,24.80
2019-06-26T07:17:52.545Z,24.90
2019-06-26T07:20:21.801Z,25.00
2019-06-26T07:22:51.148Z,25.10
2019-06-26T07:25:20.448Z,25.10
2019-06-26T07:27:49.403Z,25.20
2019-06-26T07:30:18.840Z,25.20
2019-06-26T07:32:47.849Z,25.30
2019-06-26T07:35:17.010Z,25.30
2019-06-26T07:37:46.000Z,25.40
2019-06-26T07:40:15.456Z,25.40
2019-06-26T07:42:44.690Z,25.40
2019-06-26T07:45:14.067Z,25.50
2019-06-26T07:47:44.333Z,25.60
2019-06-26T07:50:14.743Z,25.60
2019-06-26T07:52:45.418Z,25.60
2019-06-26T07:55:14.446Z,25.70
2019-06-26T07:57:43.642Z,25.80
2019-06-26T08:00:12.951Z,25.80
2019-06-26T08:02:42.217Z,25.80
2019-06-26T08:05:14.730Z,25.90
2019-06-26T08:07:43.774Z,26.00
2019-06-26T08:10:13.872Z,26.10
2019-06-26T08:12:42.924Z,26.20
2019-06-26T08:15:12.323Z,26.20
2019-06-26T08:17:41.536Z,26.30
2019-06-26T08:20:11.511Z,26.30
2019-06-26T08:22:40.785Z,26.40
2019-06-26T08:25:10.339Z,26.50
2019-06-26T08:27:39.888Z,26.50
2019-06-26T08:30:09.667Z,26.60
2019-06-26T08:32:38.880Z,26.70
2019-06-26T08:35:08.416Z,26.80
2019-06-26T08:37:37.861Z,26.90
2019-06-26T08:40:08.005Z,27.00
2019-06-26T08:42:40.084Z,27.10
2019-06-26T08:45:09.949Z,27.10
2019-06-26T08:47:39.223Z,27.20
2019-06-26T08:50:09.318Z,27.30
2019-06-26T08:52:38.650Z,27.30
2019-06-26T08:55:08.302Z,27.40
2019-06-26T08:57:37.561Z,27.50
2019-06-26T09:00:09.133Z,27.50
2019-06-26T09:02:38.393Z,27.60
2019-06-26T09:05:08.033Z,27.70
2019-06-26T09:07:37.042Z,27.80
2019-06-26T09:10:07.468Z,27.80
2019-06-26T09:12:36.439Z,27.90
2019-06-26T09:15:07.179Z,27.90
2019-06-26T09:17:38.027Z,28.00
2019-06-26T09:20:08.619Z,28.00
2019-06-26T09:22:37.802Z,28.00
2019-06-26T09:25:20.963Z,28.10
2019-06-26T09:27:38.290Z,28.20
2019-06-26T09:30:08.340Z,28.20
2019-06-26T09:32:37.381Z,28.30
2019-06-26T09:35:07.009Z,28.30
2019-06-26T09:37:36.258Z,28.30
2019-06-26T09:40:07.703Z,28.30
2019-06-26T09:42:36.759Z,28.30
2019-06-26T09:45:10.335Z,28.30
2019-06-26T09:47:39.543Z,28.30
2019-06-26T09:50:09.365Z,28.30
2019-06-26T09:52:38.417Z,28.30
2019-06-26T09:55:08.010Z,28.30
2019-06-26T09:57:37.119Z,28.30
2019-06-26T10:00:09.818Z,28.40
2019-06-26T10:02:38.761Z,28.30
2019-06-26T10:05:08.342Z,28.30
2019-06-26T10:07:37.667Z,28.30
2019-06-26T10:10:07.789Z,28.40
2019-06-26T10:12:36.834Z,28.40
2019-06-26T10:15:06.857Z,28.40
2019-06-26T10:17:36.094Z,28.50
2019-06-26T10:20:07.191Z,28.50
2019-06-26T10:22:36.221Z,28.50
2019-06-26T10:25:05.865Z,28.60
2019-06-26T10:27:35.004Z,28.60
2019-06-26T10:30:05.589Z,28.60
2019-06-26T10:32:34.670Z,28.70
2019-06-26T10:35:05.369Z,28.70
2019-06-26T10:37:34.650Z,28.80
2019-06-26T10:40:05.215Z,28.90
2019-06-26T10:42:34.270Z,29.00
2019-06-26T10:45:05.242Z,29.10
2019-06-26T10:47:34.379Z,29.30
2019-06-26T10:50:04.850Z,29.30
2019-06-26T10:52:34.367Z,29.40
2019-06-26T10:55:05.534Z,29.40
2019-06-26T10:57:34.678Z,29.30
2019-06-26T11:00:06.932Z,29.30
2019-06-26T11:02:36.086Z,29.40
2019-06-26T11:05:07.611Z,29.40
2019-06-26T11:07:36.777Z,29.50
2019-06-26T11:10:08.121Z,29.60
2019-06-26T11:12:37.268Z,29.70
2019-06-26T11:15:10.053Z,29.70
2019-06-26T11:17:39.147Z,29.70
2019-06-26T11:20:10.393Z,29.80
2019-06-26T11:22:39.740Z,29.80
2019-06-26T11:25:09.441Z,29.90
2019-06-26T11:27:38.656Z,30.10
2019-06-26T11:30:11.854Z,30.10
2019-06-26T11:32:40.952Z,30.10
2019-06-26T11:35:10.447Z,29.90
2019-06-26T11:37:39.434Z,29.70
2019-06-26T11:40:09.241Z,29.60
2019-06-26T11:42:38.321Z,29.50
2019-06-26T11:45:09.408Z,29.40
2019-06-26T11:47:38.509Z,29.50
2019-06-26T11:50:09.158Z,29.70
2019-06-26T11:52:38.669Z,29.80
2019-06-26T11:55:08.970Z,29.90
2019-06-26T11:57:38.201Z,30.00
2019-06-26T12:00:10.203Z,30.10
2019-06-26T12:02:39.237Z,30.30
2019-06-26T12:05:08.694Z,30.40
2019-06-26T12:07:38.413Z,30.40
2019-06-26T12:10:09.262Z,30.60
2019-06-26T12:12:38.646Z,30.70
2019-06-26T12:15:08.530Z,30.80
2019-06-26T12:17:37.496Z,30.90
2019-06-26T12:20:17.859Z,31.00
2019-06-26T12:22:38.320Z,31.00
2019-06-26T12:25:07.927Z,30.90
2019-06-26T12:27:36.955Z,30.80
2019-06-26T12:30:07.200Z,30.90
2019-06-26T12:32:42.242Z,30.90
2019-06-26T12:35:08.628Z,30.80
2019-06-26T12:37:38.386Z,30.80
2019-06-26T12:40:08.162Z,30.90
2019-06-26T12:42:37.358Z,30.90
2019-06-26T12:45:07.518Z,31.00
2019-06-26T12:47:36.809Z,31.00
2019-06-26T12:50:07.905Z,31.10
2019-06-26T12:52:36.860Z,31.20
2019-06-26T12:55:07.002Z,31.30
2019-06-26T12:57:36.245Z,31.40
2019-06-26T13:00:11.994Z,31.50
2019-06-26T13:02:41.093Z,31.60
2019-06-26T13:05:10.426Z,31.60
2019-06-26T13:07:39.729Z,31.70
2019-06-26T13:10:09.921Z,31.80
2019-06-26T13:12:38.886Z,31.80
2019-06-26T13:15:10.027Z,31.90
2019-06-26T13:17:39.128Z,31.90
2019-06-26T13:20:10.356Z,32.00
2019-06-26T13:22:39.674Z,32.00
2019-06-26T13:25:10.157Z,32.10
2019-06-26T13:27:39.289Z,32.10
2019-06-26T13:30:08.802Z,32.20
2019-06-26T13:32:37.869Z,32.20
2019-06-26T13:35:07.649Z,32.20
2019-06-26T13:37:36.998Z,32.30
2019-06-26T13:40:07.107Z,32.30
2019-06-26T13:42:36.182Z,32.30
2019-06-26T13:45:07.196Z,32.30
2019-06-26T13:47:36.375Z,32.30
2019-06-26T13:50:11.855Z,32.30
2019-06-26T13:52:40.915Z,32.30
2019-06-26T13:55:10.291Z,32.30
2019-06-26T13:57:39.593Z,32.30
2019-06-26T14:00:09.353Z,32.30
2019-06-26T14:02:38.680Z,32.40
2019-06-26T14:05:09.819Z,32.40
2019-06-26T14:07:38.960Z,32.40
2019-06-26T14:10:09.110Z,32.40
2019-06-26T14:12:38.385Z,32.30
2019-06-26T14:15:08.325Z,32.30
2019-06-26T14:17:37.536Z,32.40
2019-06-26T14:20:08.517Z,32.40
2019-06-26T14:22:37.628Z,32.40
2019-06-26T14:25:08.036Z,32.40
2019-06-26T14:27:37.169Z,32.40
2019-06-26T14:30:07.368Z,32.50
2019-06-26T14:32:36.628Z,32.60
2019-06-26T14:35:06.325Z,32.60
2019-06-26T14:37:35.619Z,32.70
2019-06-26T14:40:07.456Z,32.70
2019-06-26T14:42:36.580Z,32.80
2019-06-26T14:45:10.453Z,32.80
2019-06-26T14:47:39.537Z,32.90
2019-06-26T14:50:09.060Z,32.90
2019-06-26T14:52:38.198Z,33.00
2019-06-26T14:55:08.001Z,33.00
2019-06-26T14:57:37.018Z,33.10
2019-06-26T15:00:07.786Z,33.20
2019-06-26T15:02:36.845Z,33.30
2019-06-26T15:05:08.094Z,33.30
2019-06-26T15:07:37.223Z,33.40
2019-06-26T15:10:10.030Z,33.50
2019-06-26T15:12:39.070Z,33.60
2019-06-26T15:15:08.576Z,33.70
2019-06-26T15:17:37.622Z,33.80
2019-06-26T15:20:08.357Z,33.90
2019-06-26T15:22:37.395Z,34.00
2019-06-26T15:25:07.701Z,34.00
2019-06-26T15:27:36.860Z,34.10
2019-06-26T15:30:07.712Z,34.10
2019-06-26T15:32:36.809Z,34.20
2019-06-26T15:35:08.235Z,34.30
2019-06-26T15:37:37.352Z,34.30
2019-06-26T15:40:07.403Z,34.30
2019-06-26T15:42:36.560Z,34.30
2019-06-26T15:45:07.497Z,34.40
2019-06-26T15:47:36.708Z,34.40
2019-06-26T15:50:10.503Z,34.50
2019-06-26T15:52:38.044Z,34.50
2019-06-26T15:55:07.948Z,34.50
2019-06-26T15:57:38.244Z,34.50
2019-06-26T16:00:07.934Z,34.60
2019-06-26T16:02:36.892Z,34.60
2019-06-26T16:05:07.447Z,34.60
2019-06-26T16:07:36.671Z,34.70
2019-06-26T16:10:07.305Z,34.70
2019-06-26T16:12:36.412Z,34.70
2019-06-26T16:15:06.537Z,34.70
2019-06-26T16:17:46.345Z,34.70
2019-06-26T16:20:15.774Z,34.70
2019-06-26T16:22:44.819Z,34.70
2019-06-26T16:25:14.349Z,34.70
2019-06-26T16:27:43.830Z,34.60
2019-06-26T16:30:13.539Z,34.60
2019-06-26T16:32:42.552Z,34.60
2019-06-26T16:35:12.515Z,34.50
2019-06-26T16:37:41.574Z,34.50
2019-06-26T16:40:11.101Z,34.60
2019-06-26T16:42:40.361Z,34.60
2019-06-26T16:45:09.823Z,34.60
2019-06-26T16:47:38.787Z,34.60
2019-06-26T16:50:09.083Z,34.60
2019-06-26T16:52:48.512Z,34.60
2019-06-26T16:55:09.538Z,34.60
2019-06-26T16:57:38.505Z,34.50
2019-06-26T17:00:10.242Z,34.50
2019-06-26T17:02:39.681Z,34.50
2019-06-26T17:05:09.017Z,34.50
2019-06-26T17:07:38.051Z,34.50
2019-06-26T17:10:08.728Z,34.50
2019-06-26T17:12:38.219Z,34.50
2019-06-26T17:15:09.073Z,34.40
2019-06-26T17:17:38.465Z,34.40
2019-06-26T17:20:08.415Z,34.30
2019-06-26T17:22:37.809Z,34.30
2019-06-26T17:25:07.855Z,34.30
2019-06-26T17:27:37.040Z,34.20
2019-06-26T17:30:08.003Z,34.20
2019-06-26T17:32:37.070Z,34.10
2019-06-26T17:35:07.396Z,34.10
2019-06-26T17:37:36.558Z,34.00
2019-06-26T17:40:06.814Z,34.00
2019-06-26T17:42:35.862Z,33.90
2019-06-26T17:45:06.454Z,33.90
2019-06-26T17:47:35.581Z,33.80
2019-06-26T17:50:05.866Z,33.70
2019-06-26T17:52:38.246Z,33.60
2019-06-26T17:55:09.596Z,33.50
2019-06-26T17:57:38.731Z,33.40
2019-06-26T18:00:09.530Z,33.20
2019-06-26T18:02:38.609Z,33.10
2019-06-26T18:05:08.288Z,32.90
2019-06-26T18:07:37.812Z,32.70
2019-06-26T18:10:07.427Z,32.60
2019-06-26T18:12:36.950Z,32.40
2019-06-26T18:15:09.200Z,32.20
2019-06-26T18:17:38.322Z,32.10
2019-06-26T18:20:08.161Z,31.90
2019-06-26T18:22:37.795Z,31.80
2019-06-26T18:25:07.261Z,31.70
2019-06-26T18:27:36.336Z,31.60
2019-06-26T18:30:09.824Z,31.40
2019-06-26T18:32:38.859Z,31.30
2019-06-26T18:35:08.180Z,31.20
2019-06-26T18:37:37.505Z,31.00
2019-06-26T18:40:07.300Z,30.90
2019-06-26T18:42:36.824Z,30.80
2019-06-26T18:45:07.265Z,30.70
2019-06-26T18:47:36.305Z,30.50
2019-06-26T18:50:08.653Z,30.50
2019-06-26T18:52:37.618Z,30.40
2019-06-26T18:55:09.460Z,30.30
2019-06-26T18:57:39.766Z,30.10
2019-06-26T19:00:09.902Z,30.00
2019-06-26T19:02:39.150Z,30.00
2019-06-26T19:05:09.227Z,29.80
2019-06-26T19:07:38.350Z,29.70
2019-06-26T19:10:08.278Z,29.60
2019-06-26T19:12:37.568Z,29.50
2019-06-26T19:15:07.498Z,29.40
2019-06-26T19:17:36.758Z,29.20
2019-06-26T19:20:08.201Z,29.10
2019-06-26T19:22:37.239Z,29.00
2019-06-26T19:25:07.253Z,28.90
2019-06-26T19:27:36.340Z,28.80
2019-06-26T19:30:14.790Z,28.70
2019-06-26T19:32:42.435Z,28.60
2019-06-26T19:35:20.275Z,28.50
2019-06-26T19:37:43.208Z,28.40
2019-06-26T19:40:12.698Z,28.30
2019-06-26T19:42:41.726Z,28.20
2019-06-26T19:45:11.710Z,28.20
2019-06-26T19:47:40.839Z,28.10
2019-06-26T19:50:10.233Z,28.00
2019-06-26T19:52:39.380Z,27.90
2019-06-26T19:55:08.907Z,27.80
2019-06-26T19:57:37.993Z,27.70
2019-06-26T20:00:11.056Z,27.60
2019-06-26T20:02:40.166Z,27.50
2019-06-26T20:05:10.569Z,27.40
2019-06-26T20:07:39.555Z,27.40
2019-06-26T20:10:09.402Z,27.30
2019-06-26T20:12:38.564Z,27.30
2019-06-26T20:15:08.894Z,27.30
2019-06-26T20:17:37.903Z,27.20
2019-06-26T20:20:07.644Z,27.10
2019-06-26T20:22:36.785Z,27.10
2019-06-26T20:25:09.492Z,27.10
2019-06-26T20:27:38.928Z,27.00
2019-06-26T20:30:10.268Z,26.90
2019-06-26T20:32:39.433Z,26.90
2019-06-26T20:35:09.526Z,26.80
2019-06-26T20:37:38.654Z,26.70
2019-06-26T20:40:08.539Z,26.70
2019-06-26T20:42:37.587Z,26.60
2019-06-26T20:45:07.643Z,26.60
2019-06-26T20:47:36.776Z,26.50
2019-06-26T20:50:09.369Z,26.50
2019-06-26T20:52:38.701Z,26.40
2019-06-26T20:55:07.874Z,26.30
2019-06-26T20:57:37.133Z,26.30
2019-06-26T21:00:08.863Z,26.20
2019-06-26T21:02:38.193Z,26.10
2019-06-26T21:05:07.597Z,26.10
2019-06-26T21:07:37.241Z,26.10
2019-06-26T21:10:06.685Z,26.00
2019-06-26T21:12:36.007Z,25.90
2019-06-26T21:15:07.837Z,25.90
2019-06-26T21:17:37.142Z,25.90
2019-06-26T21:20:06.628Z,25.80
2019-06-26T21:22:36.118Z,25.80
2019-06-26T21:25:18.514Z,25.70
2019-06-26T21:27:40.634Z,25.50
2019-06-26T21:30:10.244Z,25.50
2019-06-26T21:32:39.310Z,25.40
2019-06-26T21:35:08.350Z,25.40
2019-06-26T21:37:37.372Z,25.40
2019-06-26T21:40:06.885Z,25.30
2019-06-26T21:42:35.981Z,25.30
2019-06-26T21:45:06.123Z,25.20
2019-06-26T21:47:35.341Z,25.20
2019-06-26T21:50:05.904Z,25.20
2019-06-26T21:52:35.242Z,25.10
2019-06-26T21:55:06.556Z,25.10
2019-06-26T21:57:35.738Z,25.10
2019-06-26T22:00:10.734Z,25.00
2019-06-26T22:02:40.177Z,25.00
2019-06-26T22:05:09.731Z,24.90
2019-06-26T22:07:39.211Z,24.90
2019-06-26T22:10:08.903Z,24.90
2019-06-26T22:12:38.110Z,24.80
2019-06-26T22:15:07.734Z,24.80
2019-06-26T22:17:37.005Z,24.70
2019-06-26T22:20:12.345Z,24.70
2019-06-26T22:22:38.788Z,24.70
2019-06-26T22:25:08.665Z,24.70
2019-06-26T22:27:37.727Z,24.70
2019-06-26T22:30:08.023Z,24.60
2019-06-26T22:32:37.407Z,24.60
2019-06-26T22:35:06.987Z,24.60
2019-06-26T22:37:36.346Z,24.60
2019-06-26T22:40:06.216Z,24.60
2019-06-26T22:42:35.384Z,24.60
2019-06-26T22:45:05.283Z,24.60
2019-06-26T22:47:34.472Z,24.60
2019-06-26T22:50:04.887Z,24.50
2019-06-26T22:52:33.911Z,24.40
2019-06-26T22:55:03.145Z,24.40
2019-06-26T22:57:32.278Z,24.50
2019-06-26T23:00:01.521Z,24.50
2019-06-26T23:02:30.618Z,24.40
2019-06-26T23:04:59.745Z,24.40
2019-06-26T23:07:28.771Z,24.30
2019-06-26T23:09:57.904Z,24.30
2019-06-26T23:12:27.355Z,24.30
2019-06-26T23:14:56.647Z,24.30
2019-06-26T23:17:25.983Z,24.30
2019-06-26T23:19:55.034Z,24.30
2019-06-26T23:22:23.996Z,24.30
2019-06-26T23:24:53.215Z,24.30
2019-06-26T23:27:22.239Z,24.20
2019-06-26T23:29:51.212Z,24.20
2019-06-26T23:32:20.250Z,24.10
2019-06-26T23:34:49.373Z,24.10
2019-06-26T23:37:18.341Z,24.10
2019-06-26T23:39:48.039Z,24.00
2019-06-26T23:42:17.060Z,23.90
2019-06-26T23:44:46.211Z,23.80
2019-06-26T23:47:15.169Z,23.90
2019-06-26T23:49:44.176Z,23.90
2019-06-26T23:52:13.454Z,23.80
2019-06-26T23:54:42.462Z,23.70
2019-06-26T23:57:11.781Z,23.60
2019-06-26T23:59:40.822Z,23.50
